Time;durP1;ratioP1;P1;durP2;ratioP2;P2;SDS_P1;SDS_P2;PMS_P1;PMS_P2;Temp;Humidity;BMP_temperature;BMP_pressure;BME280_temperature;BME280_humidity;BME280_pressure;Samples;Min_cycle;Max_cycle;Signal;HPM_P1;HPM_P2
2022/03/02 00:00:36;;;;;;;35.92;13.98;;;-2.90;99.90;;;;;;5014261;28;20021;-71
2022/03/02 00:03:02;;;;;;;35.83;12.98;;;-2.90;99.90;;;;;;5014793;28;20116;-72
2022/03/02 00:05:28;;;;;;;39.25;13.15;;;-2.90;99.90;;;;;;5009391;28;20061;-72
2022/03/02 00:07:54;;;;;;;36.85;13.45;;;-2.90;99.90;;;;;;5025577;28;20022;-69
2022/03/02 00:10:20;;;;;;;32.50;12.77;;;-2.90;99.90;;;;;;5026942;28;20108;-72
2022/03/02 00:12:46;;;;;;;40.08;14.52;;;-2.90;99.90;;;;;;5022151;28;20046;-71
2022/03/02 00:15:12;;;;;;;34.22;12.93;;;-3.00;99.90;;;;;;5017534;28;20363;-72
2022/03/02 00:17:37;;;;;;;35.33;11.90;;;-3.00;99.90;;;;;;5026955;28;20021;-71
2022/03/02 00:20:04;;;;;;;35.65;13.32;;;-3.00;99.90;;;;;;5026635;28;20470;-71
2022/03/02 00:22:30;;;;;;;32.97;12.32;;;-3.00;99.90;;;;;;5019246;28;20052;-72
2022/03/02 00:24:56;;;;;;;35.08;12.82;;;-3.00;99.90;;;;;;5008244;28;20414;-70
2022/03/02 00:27:23;;;;;;;32.03;11.95;;;-3.00;99.90;;;;;;5008635;28;20034;-72
2022/03/02 00:29:49;;;;;;;38.80;13.32;;;-3.00;99.90;;;;;;5008915;28;20065;-71
2022/03/02 00:32:14;;;;;;;37.67;14.50;;;-3.00;99.90;;;;;;5020478;28;20140;-70
2022/03/02 00:34:40;;;;;;;37.40;12.98;;;-3.20;99.90;;;;;;5028439;28;20766;-71
2022/03/02 00:37:06;;;;;;;36.78;12.50;;;-3.20;99.90;;;;;;5014624;28;20034;-71
2022/03/02 00:39:33;;;;;;;37.33;14.07;;;-3.40;99.90;;;;;;5007622;28;20081;-71
2022/03/02 00:41:59;;;;;;;42.65;14.93;;;-3.60;99.90;;;;;;5007820;28;20121;-72
2022/03/02 00:44:24;;;;;;;40.15;13.45;;;-3.50;99.90;;;;;;5008801;28;20131;-72
2022/03/02 00:46:50;;;;;;;42.17;14.40;;;-3.50;99.90;;;;;;5012172;28;20033;-72
2022/03/02 00:49:16;;;;;;;39.50;14.93;;;-3.50;99.90;;;;;;5020322;28;20125;-69
2022/03/02 00:51:42;;;;;;;37.38;13.65;;;-3.50;99.90;;;;;;5045880;28;20095;-72
2022/03/02 00:54:09;;;;;;;39.83;13.55;;;-3.60;99.90;;;;;;5042364;28;20033;-71
2022/03/02 00:56:35;;;;;;;37.95;13.75;;;-3.60;99.90;;;;;;5012790;28;20025;-72
2022/03/02 00:59:01;;;;;;;42.65;14.15;;;-3.60;99.90;;;;;;5033075;28;20110;-72
2022/03/02 01:01:26;;;;;;;39.38;13.65;;;-3.50;99.90;;;;;;5044939;28;20033;-72
2022/03/02 01:03:52;;;;;;;44.83;13.98;;;-3.40;99.90;;;;;;5039527;28;20067;-69
2022/03/02 01:06:18;;;;;;;40.92;14.95;;;-3.40;99.90;;;;;;5047377;28;20123;-70
2022/03/02 01:08:44;;;;;;;43.13;14.18;;;-3.30;99.90;;;;;;5030217;28;20080;-69
2022/03/02 01:11:11;;;;;;;37.83;13.70;;;-3.30;99.90;;;;;;5032813;28;20041;-71
2022/03/02 01:13:36;;;;;;;42.95;15.05;;;-3.30;99.90;;;;;;5034372;28;20040;-71
2022/03/02 01:16:03;;;;;;;39.38;14.27;;;-3.20;99.90;;;;;;5047054;28;20029;-72
2022/03/02 01:18:28;;;;;;;35.88;13.65;;;-3.20;99.90;;;;;;5042839;28;20078;-72
2022/03/02 01:20:54;;;;;;;44.45;13.98;;;-3.10;99.90;;;;;;5038384;28;20148;-67
2022/03/02 01:23:20;;;;;;;31.35;12.50;;;-3.00;99.90;;;;;;5040441;28;20056;-71
2022/03/02 01:25:46;;;;;;;38.45;13.55;;;-3.00;99.90;;;;;;5041441;28;20485;-73
2022/03/02 01:28:11;;;;;;;39.17;13.88;;;-2.90;99.90;;;;;;5023024;28;20120;-72
2022/03/02 01:30:37;;;;;;;37.83;13.93;;;-2.90;99.90;;;;;;5018546;28;20033;-72
2022/03/02 01:33:03;;;;;;;38.78;15.00;;;-3.00;99.90;;;;;;5057927;28;20470;-71
2022/03/02 01:35:29;;;;;;;40.55;14.27;;;-3.10;99.90;;;;;;5040464;28;20036;-72
2022/03/02 01:37:54;;;;;;;35.83;13.73;;;-3.20;99.90;;;;;;5049509;28;20044;-68
2022/03/02 01:40:20;;;;;;;38.53;14.90;;;-3.30;99.90;;;;;;5046175;28;20025;-72
2022/03/02 01:42:46;;;;;;;38.92;13.95;;;-3.30;99.90;;;;;;5044325;28;20402;-70
2022/03/02 01:45:15;;;;;;;38.58;13.55;;;-3.30;99.90;;;;;;5038995;28;20454;-71
2022/03/02 01:47:41;;;;;;;41.25;13.70;;;-3.30;99.90;;;;;;5035624;28;20154;-71
2022/03/02 01:50:10;;;;;;;37.67;13.93;;;-3.40;99.90;;;;;;5041388;28;20025;-71
2022/03/02 01:52:36;;;;;;;34.60;12.85;;;-3.30;99.90;;;;;;5045186;28;20029;-72
2022/03/02 01:55:02;;;;;;;37.97;13.48;;;-3.30;99.90;;;;;;5041033;28;20044;-69
2022/03/02 01:57:28;;;;;;;38.63;14.00;;;-3.30;99.90;;;;;;5012440;28;20061;-72
2022/03/02 01:59:54;;;;;;;37.03;13.13;;;-3.30;99.90;;;;;;5045846;28;20465;-72
2022/03/02 02:02:20;;;;;;;37.85;14.05;;;-3.30;99.90;;;;;;5042161;28;20792;-72
2022/03/02 02:04:46;;;;;;;43.55;14.23;;;-3.20;99.90;;;;;;5048702;28;20029;-71
2022/03/02 02:07:12;;;;;;;31.92;12.88;;;-3.20;99.90;;;;;;5041690;28;20025;-70
2022/03/02 02:09:38;;;;;;;34.65;14.25;;;-3.20;99.90;;;;;;5035927;28;20044;-71
2022/03/02 02:12:03;;;;;;;36.58;14.05;;;-3.10;99.90;;;;;;5042545;28;20032;-72
2022/03/02 02:14:29;;;;;;;39.10;13.63;;;-3.20;99.90;;;;;;5048246;28;20029;-72
2022/03/02 02:16:55;;;;;;;37.95;14.40;;;-3.10;99.90;;;;;;5042799;28;20394;-70
2022/03/02 02:19:20;;;;;;;33.67;13.15;;;-3.10;99.90;;;;;;5030325;28;20283;-72
2022/03/02 02:21:47;;;;;;;45.38;13.20;;;-3.10;99.90;;;;;;5044620;28;20132;-70
2022/03/02 02:24:13;;;;;;;38.13;13.30;;;-3.00;99.90;;;;;;5031638;28;20052;-71
2022/03/02 02:26:39;;;;;;;37.58;12.88;;;-3.00;99.90;;;;;;5045635;28;20107;-72
2022/03/02 02:29:05;;;;;;;36.05;13.75;;;-3.10;99.90;;;;;;5037293;28;20536;-71
2022/03/02 02:31:31;;;;;;;33.28;13.18;;;-3.10;99.90;;;;;;5032642;28;20139;-71
2022/03/02 02:33:57;;;;;;;39.40;14.38;;;-3.10;99.90;;;;;;5048701;28;20033;-72
2022/03/02 02:36:23;;;;;;;34.38;13.25;;;-3.10;99.90;;;;;;5026347;28;20159;-71
2022/03/02 02:38:49;;;;;;;39.20;14.35;;;-3.00;99.90;;;;;;5011066;28;20374;-71
2022/03/02 02:41:16;;;;;;;35.20;13.00;;;-3.00;99.90;;;;;;5043584;28;20573;-71
2022/03/02 02:43:42;;;;;;;36.10;13.48;;;-3.00;99.90;;;;;;5046471;28;20029;-71
2022/03/02 02:46:12;;;;;;;41.67;14.10;;;-3.00;99.90;;;;;;5043568;28;20114;-71
2022/03/02 02:48:38;;;;;;;32.78;12.93;;;-3.00;99.90;;;;;;5032162;28;20094;-72
2022/03/02 02:51:05;;;;;;;38.28;12.77;;;-2.90;99.90;;;;;;5045867;28;20032;-71
2022/03/02 02:53:31;;;;;;;37.25;13.55;;;-2.80;99.90;;;;;;5046529;28;20549;-71
2022/03/02 02:55:57;;;;;;;38.38;14.20;;;-2.90;99.90;;;;;;5047698;28;20035;-71
2022/03/02 02:58:23;;;;;;;33.05;12.95;;;-3.00;99.90;;;;;;5040712;28;20892;-70
2022/03/02 03:00:49;;;;;;;31.52;12.15;;;-3.00;99.90;;;;;;5046357;28;20033;-72
2022/03/02 03:03:16;;;;;;;36.00;12.73;;;-3.00;99.90;;;;;;5015668;28;20537;-72
2022/03/02 03:05:42;;;;;;;38.47;14.07;;;-2.90;99.90;;;;;;5018840;28;20092;-71
2022/03/02 03:08:10;;;;;;;38.70;14.15;;;-2.90;99.90;;;;;;5044022;28;20462;-72
2022/03/02 03:10:37;;;;;;;41.55;13.80;;;-3.00;99.90;;;;;;5045452;28;20037;-71
2022/03/02 03:13:03;;;;;;;35.40;12.13;;;-3.00;99.90;;;;;;5032712;28;20037;-68
2022/03/02 03:15:29;;;;;;;30.00;11.65;;;-3.00;99.90;;;;;;5032638;28;20102;-70
2022/03/02 03:17:55;;;;;;;30.98;11.80;;;-3.10;99.90;;;;;;5030979;28;20750;-71
2022/03/02 03:20:25;;;;;;;30.67;10.70;;;-3.00;99.90;;;;;;5032895;28;20029;-72
2022/03/02 03:22:51;;;;;;;32.28;12.43;;;-2.80;99.90;;;;;;5038498;28;20547;-72
2022/03/02 03:25:17;;;;;;;29.30;11.70;;;-2.70;99.90;;;;;;5038171;28;20156;-72
2022/03/02 03:27:44;;;;;;;34.67;12.68;;;-2.70;99.90;;;;;;5029185;28;20478;-70
2022/03/02 03:30:12;;;;;;;39.58;13.30;;;-2.70;99.90;;;;;;5028266;28;20064;-72
2022/03/02 03:32:37;;;;;;;34.85;13.00;;;-2.70;99.90;;;;;;5046488;28;20482;-72
2022/03/02 03:35:04;;;;;;;35.15;12.35;;;-2.80;99.90;;;;;;5021082;28;20041;-68
2022/03/02 03:37:30;;;;;;;32.67;13.02;;;-2.80;99.90;;;;;;5043117;28;20029;-72
2022/03/02 03:39:56;;;;;;;32.78;12.30;;;-2.80;99.90;;;;;;5045333;28;20048;-71
2022/03/02 03:42:25;;;;;;;35.78;11.85;;;-2.80;99.90;;;;;;5019419;28;20049;-72
2022/03/02 03:44:51;;;;;;;36.90;11.82;;;-2.80;99.90;;;;;;5036683;28;20513;-72
2022/03/02 03:47:17;;;;;;;35.58;12.02;;;-2.80;99.90;;;;;;5031373;28;20113;-72
2022/03/02 03:49:43;;;;;;;34.65;11.80;;;-2.80;99.90;;;;;;5045442;28;20489;-71
2022/03/02 03:52:09;;;;;;;40.53;14.30;;;-2.90;99.90;;;;;;5041207;28;20090;-71
2022/03/02 03:54:35;;;;;;;37.05;13.88;;;-2.90;99.90;;;;;;5046680;28;20037;-71
2022/03/02 03:57:02;;;;;;;33.60;13.15;;;-3.00;99.90;;;;;;5038770;28;20459;-71
2022/03/02 03:59:27;;;;;;;38.60;13.60;;;-3.10;99.90;;;;;;5042811;28;20528;-72
2022/03/02 04:01:53;;;;;;;35.47;13.02;;;-3.20;99.90;;;;;;5036456;28;20041;-71
2022/03/02 04:04:19;;;;;;;36.45;13.35;;;-3.30;99.90;;;;;;5045172;28;20032;-71
2022/03/02 04:06:45;;;;;;;39.10;13.77;;;-3.30;99.90;;;;;;5039042;28;20064;-71
2022/03/02 04:09:11;;;;;;;43.60;13.45;;;-3.40;99.90;;;;;;5028184;28;20063;-72
2022/03/02 04:11:36;;;;;;;34.05;13.45;;;-3.50;99.90;;;;;;5034598;28;20505;-72
2022/03/02 04:14:02;;;;;;;33.15;12.25;;;-3.50;99.90;;;;;;5027361;28;20099;-71
2022/03/02 04:16:28;;;;;;;32.95;12.63;;;-3.50;99.90;;;;;;5033104;28;20029;-67
2022/03/02 04:18:54;;;;;;;34.50;12.82;;;-3.50;99.90;;;;;;5034724;28;20360;-76
2022/03/02 04:21:20;;;;;;;38.92;13.18;;;-3.40;99.90;;;;;;5026395;28;20034;-69
2022/03/02 04:23:45;;;;;;;34.65;11.60;;;-3.40;99.90;;;;;;5024911;28;20065;-70
2022/03/02 04:26:11;;;;;;;37.83;12.57;;;-3.40;99.90;;;;;;5028187;28;20030;-71
2022/03/02 04:28:37;;;;;;;32.58;12.20;;;-3.40;99.90;;;;;;5035857;28;20529;-73
2022/03/02 04:31:03;;;;;;;41.17;11.63;;;-3.40;99.90;;;;;;5034779;28;20042;-73
2022/03/02 04:33:29;;;;;;;34.00;11.95;;;-3.40;99.90;;;;;;5024649;28;20131;-72
2022/03/02 04:35:54;;;;;;;29.90;11.00;;;-3.40;99.90;;;;;;5033054;28;20124;-72
2022/03/02 04:38:20;;;;;;;29.88;10.70;;;-3.40;99.90;;;;;;5037067;28;20036;-72
2022/03/02 04:40:46;;;;;;;31.30;10.80;;;-3.40;99.90;;;;;;5037547;28;20136;-70
2022/03/02 04:43:12;;;;;;;33.00;10.60;;;-3.40;99.90;;;;;;5025065;28;20112;-72
2022/03/02 04:45:38;;;;;;;26.88;10.18;;;-3.40;99.90;;;;;;5036898;28;20120;-71
2022/03/02 04:48:04;;;;;;;25.83;10.55;;;-3.40;99.90;;;;;;5015246;28;20105;-73
2022/03/02 04:50:30;;;;;;;29.35;10.70;;;-3.40;99.90;;;;;;5022170;28;20916;-71
2022/03/02 04:52:56;;;;;;;31.75;11.13;;;-3.50;99.90;;;;;;5030714;28;20037;-71
2022/03/02 04:55:21;;;;;;;31.23;10.52;;;-3.40;99.90;;;;;;5031069;28;20065;-71
2022/03/02 04:57:56;;;;;;;23.45;9.32;;;-3.40;99.90;;;;;;5032090;28;20067;-77
2022/03/02 05:00:27;;;;;;;27.58;10.25;;;-3.50;99.90;;;;;;5029971;28;20040;-78
2022/03/02 05:02:55;;;;;;;31.55;10.60;;;-3.50;99.90;;;;;;5048761;28;20041;-75
2022/03/02 05:05:22;;;;;;;29.15;9.50;;;-3.40;99.90;;;;;;5045901;28;20021;-78
2022/03/02 05:07:49;;;;;;;28.92;10.40;;;-3.50;99.90;;;;;;5051497;28;20814;-81
2022/03/02 05:10:17;;;;;;;32.63;12.48;;;-3.40;99.90;;;;;;5041902;28;20484;-77
2022/03/02 05:12:43;;;;;;;33.85;11.85;;;-3.40;99.90;;;;;;5050589;28;20037;-79
2022/03/02 05:15:10;;;;;;;29.48;10.27;;;-3.40;99.90;;;;;;5027221;28;20033;-70
2022/03/02 05:17:37;;;;;;;30.33;10.68;;;-3.40;99.90;;;;;;5031676;28;20113;-75
2022/03/02 05:20:04;;;;;;;32.72;10.38;;;-3.50;99.90;;;;;;5043993;28;20034;-78
2022/03/02 05:22:30;;;;;;;28.67;10.95;;;-3.60;99.90;;;;;;5010383;28;20128;-78
2022/03/02 05:24:56;;;;;;;33.50;11.48;;;-3.70;99.90;;;;;;5016873;28;20119;-71
2022/03/02 05:27:22;;;;;;;27.88;10.27;;;-3.70;99.90;;;;;;5041280;28;20021;-76
2022/03/02 05:29:47;;;;;;;26.50;10.07;;;-3.70;99.90;;;;;;5038071;28;20591;-74
2022/03/02 05:32:13;;;;;;;26.00;9.38;;;-3.50;99.90;;;;;;5018769;28;20522;-77
2022/03/02 05:34:39;;;;;;;26.98;9.13;;;-3.30;99.90;;;;;;5019175;28;20363;-78
2022/03/02 05:37:04;;;;;;;21.42;8.50;;;-3.10;99.90;;;;;;5027463;28;20056;-76
2022/03/02 05:39:30;;;;;;;26.73;9.07;;;-2.80;99.90;;;;;;5041312;28;20021;-76
2022/03/02 05:41:56;;;;;;;26.65;8.93;;;-2.70;99.90;;;;;;5010966;28;20049;-79
2022/03/02 05:44:22;;;;;;;23.35;9.10;;;-2.70;99.90;;;;;;5016145;28;20025;-77
2022/03/02 05:46:48;;;;;;;20.95;8.20;;;-2.50;99.90;;;;;;5024264;28;20073;-78
2022/03/02 05:49:14;;;;;;;29.00;9.77;;;-2.40;99.90;;;;;;5010806;28;20033;-76
2022/03/02 05:51:40;;;;;;;33.53;12.05;;;-2.40;99.90;;;;;;5010106;28;20192;-76
2022/03/02 05:54:10;;;;;;;37.53;13.27;;;-2.80;99.90;;;;;;5014167;28;20042;-73
2022/03/02 05:56:37;;;;;;;28.90;11.20;;;-3.20;99.90;;;;;;5036693;28;20037;-77
2022/03/02 05:59:08;;;;;;;29.17;10.15;;;-3.40;99.90;;;;;;5040145;28;20123;-76
2022/03/02 06:01:35;;;;;;;29.67;9.27;;;-3.50;99.90;;;;;;5034441;28;20037;-79
2022/03/02 06:04:05;;;;;;;34.45;12.45;;;-3.40;99.90;;;;;;5029432;28;20030;-79
2022/03/02 06:06:32;;;;;;;36.28;12.40;;;-3.20;99.90;;;;;;5030164;28;20025;-80
2022/03/02 06:08:59;;;;;;;35.25;12.25;;;-3.00;99.90;;;;;;5025645;28;20041;-78
2022/03/02 06:11:25;;;;;;;33.63;12.07;;;-3.10;99.90;;;;;;5019345;28;20497;-77
2022/03/02 06:13:51;;;;;;;32.33;10.80;;;-3.20;99.90;;;;;;5028344;28;20033;-76
2022/03/02 06:16:17;;;;;;;35.92;10.95;;;-3.40;99.90;;;;;;5028731;28;20040;-79
2022/03/02 06:18:43;;;;;;;33.15;12.73;;;-3.40;99.90;;;;;;5027828;28;20037;-76
2022/03/02 06:21:16;;;;;;;38.33;13.13;;;-3.50;99.90;;;;;;5023197;28;20113;-79
2022/03/02 06:23:42;;;;;;;36.00;13.07;;;-3.70;99.90;;;;;;4979736;28;1143369;-78
2022/03/02 06:26:08;;;;;;;34.58;13.13;;;-3.70;99.90;;;;;;5020280;28;20123;-76
2022/03/02 06:28:34;;;;;;;29.17;10.02;;;-3.80;99.90;;;;;;5022292;28;20025;-75
2022/03/02 06:31:00;;;;;;;25.55;9.82;;;-3.80;99.90;;;;;;5027337;28;20041;-73
2022/03/02 06:33:25;;;;;;;31.88;11.15;;;-3.60;99.90;;;;;;5016591;28;20052;-75
2022/03/02 06:35:51;;;;;;;30.73;10.55;;;-3.40;99.90;;;;;;5029595;28;20037;-72
2022/03/02 06:38:18;;;;;;;28.80;9.60;;;-3.40;99.90;;;;;;5027801;28;20474;-75
2022/03/02 06:41:09;;;;;;;23.60;9.25;;;-3.30;99.90;;;;;;5022794;28;20495;-74
2022/03/02 06:43:39;;;;;;;31.35;10.02;;;-3.20;99.90;;;;;;5009333;28;20275;-73
2022/03/02 06:46:16;;;;;;;36.03;10.35;;;-3.10;99.90;;;;;;5028238;28;20025;-71
2022/03/02 06:48:53;;;;;;;28.95;9.63;;;-3.00;99.90;;;;;;5021791;28;20433;-78
2022/03/02 06:51:24;;;;;;;35.30;11.35;;;-2.80;99.90;;;;;;5041743;28;20482;-75
2022/03/02 06:53:51;;;;;;;35.88;12.15;;;-2.60;99.90;;;;;;5028644;28;20037;-78
2022/03/02 06:56:21;;;;;;;38.38;11.55;;;-2.40;99.90;;;;;;5029515;28;20124;-70
2022/03/02 06:58:49;;;;;;;28.63;10.15;;;-2.30;99.90;;;;;;5010209;28;20127;-75
2022/03/02 07:01:23;;;;;;;25.60;9.73;;;-2.10;99.90;;;;;;5036710;28;20029;-70
2022/03/02 07:03:56;;;;;;;26.58;9.13;;;-1.90;99.90;;;;;;5028323;28;20032;-74
2022/03/02 07:06:22;;;;;;;21.27;8.05;;;-1.70;99.90;;;;;;5026169;28;20021;-75
2022/03/02 07:08:48;;;;;;;28.23;9.23;;;-1.40;99.90;;;;;;5024544;28;20092;-74
2022/03/02 07:11:16;;;;;;;29.90;9.48;;;-1.20;99.90;;;;;;5027795;28;20030;-70
2022/03/02 07:13:44;;;;;;;27.88;11.88;;;-1.10;99.90;;;;;;5016352;28;20033;-72
2022/03/02 07:16:11;;;;;;;24.15;8.55;;;-1.10;99.90;;;;;;5014700;28;20064;-72
2022/03/02 07:18:37;;;;;;;19.48;7.45;;;-1.00;99.90;;;;;;5019825;28;20048;-77
2022/03/02 07:21:13;;;;;;;25.13;9.27;;;-1.00;99.90;;;;;;5036848;28;20560;-74
2022/03/02 07:23:46;;;;;;;27.77;8.95;;;-0.90;99.90;;;;;;5027963;28;20498;-72
2022/03/02 07:26:13;;;;;;;24.35;8.90;;;-0.80;99.90;;;;;;5020856;28;20096;-75
2022/03/02 07:28:39;;;;;;;23.88;9.32;;;-0.70;99.90;;;;;;5028426;28;20021;-73
2022/03/02 07:31:08;;;;;;;25.65;9.90;;;-0.70;99.90;;;;;;5029879;28;20037;-74
2022/03/02 07:33:37;;;;;;;24.13;8.95;;;-0.50;99.90;;;;;;5058241;28;20037;-75
2022/03/02 07:36:03;;;;;;;22.42;8.93;;;-0.40;99.90;;;;;;5030124;28;20098;-73
2022/03/02 07:38:31;;;;;;;30.88;9.57;;;-0.30;99.90;;;;;;5027913;28;20033;-75
2022/03/02 07:40:57;;;;;;;23.15;8.10;;;-0.20;99.90;;;;;;5025797;28;20086;-73
2022/03/02 07:43:23;;;;;;;32.47;11.50;;;-0.10;99.90;;;;;;5023730;28;20029;-77
2022/03/02 07:45:50;;;;;;;25.88;10.18;;;0.00;99.90;;;;;;5026842;28;20532;-73
2022/03/02 07:48:16;;;;;;;25.60;8.93;;;0.10;99.90;;;;;;5024575;28;20045;-68
2022/03/02 07:50:42;;;;;;;27.60;9.57;;;0.20;99.90;;;;;;5025276;28;20474;-72
2022/03/02 07:53:10;;;;;;;25.63;10.02;;;0.20;99.90;;;;;;5041353;28;20509;-75
2022/03/02 07:55:37;;;;;;;23.73;8.43;;;0.30;99.90;;;;;;5020495;28;20049;-76
2022/03/02 07:58:04;;;;;;;26.05;8.60;;;0.40;99.90;;;;;;5019111;28;20148;-77
2022/03/02 08:00:30;;;;;;;25.42;8.45;;;0.50;99.90;;;;;;5035406;28;20025;-77
2022/03/02 08:03:00;;;;;;;23.65;9.27;;;0.60;99.90;;;;;;5027106;28;20558;-78
2022/03/02 08:05:26;;;;;;;26.73;9.65;;;0.80;99.90;;;;;;5015229;28;20756;-77
2022/03/02 08:07:52;;;;;;;30.65;11.88;;;0.90;99.90;;;;;;5026548;28;20083;-79
2022/03/02 08:10:18;;;;;;;31.27;12.65;;;0.80;99.90;;;;;;5025102;28;20034;-70
2022/03/02 08:12:44;;;;;;;31.55;12.25;;;0.60;99.90;;;;;;5026197;28;20084;-73
2022/03/02 08:15:10;;;;;;;28.90;11.18;;;0.30;99.90;;;;;;5025354;28;20033;-75
2022/03/02 08:17:37;;;;;;;29.65;11.35;;;0.30;99.90;;;;;;5015539;28;20037;-76
2022/03/02 08:20:04;;;;;;;29.95;11.38;;;0.50;99.90;;;;;;5025053;28;20034;-77
2022/03/02 08:22:31;;;;;;;30.77;12.25;;;0.70;99.90;;;;;;5016022;28;20073;-73
2022/03/02 08:25:06;;;;;;;28.92;11.82;;;0.80;99.90;;;;;;5018176;28;20109;-76
2022/03/02 08:27:32;;;;;;;48.13;21.33;;;1.00;99.90;;;;;;5025519;28;20117;-74
2022/03/02 08:30:01;;;;;;;39.28;13.10;;;1.20;99.90;;;;;;5014121;28;20044;-74
2022/03/02 08:32:34;;;;;;;47.33;15.70;;;1.20;99.90;;;;;;5012939;28;20026;-79
2022/03/02 08:35:00;;;;;;;54.85;16.20;;;1.40;99.90;;;;;;5040300;28;20037;-75
2022/03/02 08:37:29;;;;;;;39.88;13.88;;;1.70;99.90;;;;;;5017834;28;20033;-76
2022/03/02 08:39:56;;;;;;;32.75;10.57;;;1.90;99.90;;;;;;5027981;28;20041;-72
2022/03/02 08:42:22;;;;;;;22.20;9.68;;;2.00;99.90;;;;;;5008545;28;20041;-71
2022/03/02 08:44:48;;;;;;;23.08;9.55;;;2.00;99.90;;;;;;5008502;28;20480;-80
2022/03/02 08:47:14;;;;;;;23.83;10.02;;;2.20;99.90;;;;;;5025668;28;20048;-77
2022/03/02 08:49:40;;;;;;;27.45;10.82;;;2.20;99.90;;;;;;5025888;28;20056;-75
2022/03/02 08:52:06;;;;;;;28.00;10.88;;;2.10;99.90;;;;;;5026073;28;20676;-81
2022/03/02 08:54:40;;;;;;;24.83;10.68;;;2.20;99.90;;;;;;5010432;28;20661;-72
2022/03/02 08:57:06;;;;;;;24.73;9.18;;;2.20;99.90;;;;;;5021945;28;20053;-79
2022/03/02 08:59:34;;;;;;;27.25;10.18;;;2.20;99.90;;;;;;5027296;28;20033;-81
2022/03/02 09:02:03;;;;;;;22.38;9.40;;;2.30;99.90;;;;;;5034627;28;20096;-71
2022/03/02 09:04:32;;;;;;;25.33;9.35;;;2.40;99.90;;;;;;5022644;28;20540;-78
2022/03/02 09:06:59;;;;;;;24.42;10.75;;;2.40;99.90;;;;;;5027637;28;20061;-73
2022/03/02 09:09:24;;;;;;;27.75;10.50;;;2.30;99.90;;;;;;5026366;28;20025;-71
2022/03/02 09:11:50;;;;;;;29.35;10.65;;;2.30;99.90;;;;;;5022113;28;20049;-74
2022/03/02 09:14:18;;;;;;;23.85;9.68;;;2.40;99.90;;;;;;5008534;28;20061;-77
2022/03/02 09:16:44;;;;;;;25.88;9.60;;;2.50;99.90;;;;;;5019714;28;20093;-75
2022/03/02 09:19:10;;;;;;;22.05;9.60;;;2.60;99.90;;;;;;5022092;28;20103;-72
2022/03/02 09:21:37;;;;;;;22.90;9.88;;;2.70;99.90;;;;;;5025486;28;20687;-78
2022/03/02 09:24:05;;;;;;;28.80;9.75;;;2.90;99.90;;;;;;5027926;28;20084;-72
2022/03/02 09:26:32;;;;;;;23.52;9.60;;;3.10;99.90;;;;;;5031941;28;20041;-71
2022/03/02 09:29:03;;;;;;;24.10;9.57;;;3.30;99.90;;;;;;5027061;28;20848;-74
2022/03/02 09:31:29;;;;;;;20.58;8.85;;;3.60;99.90;;;;;;5028281;28;20118;-75
2022/03/02 09:33:58;;;;;;;21.55;9.23;;;3.80;99.90;;;;;;5032886;28;20055;-73
2022/03/02 09:36:26;;;;;;;24.05;10.00;;;4.10;99.90;;;;;;5021806;28;20471;-69
2022/03/02 09:38:53;;;;;;;27.58;10.30;;;4.20;99.90;;;;;;5029798;28;20033;-74
2022/03/02 09:41:33;;;;;;;25.08;9.73;;;4.40;99.90;;;;;;5029560;28;20597;-71
2022/03/02 09:44:00;;;;;;;23.33;9.43;;;4.60;99.90;;;;;;5039105;28;20037;-75
2022/03/02 09:46:39;;;;;;;25.60;9.60;;;4.60;97.80;;;;;;5030310;28;20072;-69
2022/03/02 09:49:07;;;;;;;22.73;8.85;;;4.60;97.10;;;;;;5030772;28;20171;-77
2022/03/02 09:51:34;;;;;;;28.23;10.23;;;4.60;96.40;;;;;;5029742;28;20069;-74
2022/03/02 09:54:03;;;;;;;24.90;9.30;;;4.50;97.70;;;;;;5028543;28;20045;-76
2022/03/02 09:56:31;;;;;;;25.35;10.40;;;4.70;96.70;;;;;;5017531;28;20029;-78
2022/03/02 09:59:00;;;;;;;25.90;11.50;;;4.80;97.50;;;;;;5031692;28;20029;-77
2022/03/02 10:01:28;;;;;;;26.73;11.38;;;4.90;95.60;;;;;;5026904;28;20043;-67
2022/03/02 10:03:54;;;;;;;28.98;10.65;;;4.90;94.70;;;;;;5043255;28;20025;-74
2022/03/02 10:06:21;;;;;;;19.35;9.13;;;5.00;95.40;;;;;;5029266;28;20034;-73
2022/03/02 10:08:52;;;;;;;27.40;11.13;;;5.10;94.90;;;;;;5029066;28;20377;-75
2022/03/02 10:11:25;;;;;;;25.30;10.48;;;5.20;94.20;;;;;;5020487;28;20194;-76
2022/03/02 10:13:55;;;;;;;21.88;9.23;;;5.50;93.90;;;;;;5020163;28;20131;-76
2022/03/02 10:16:25;;;;;;;26.00;9.93;;;5.80;91.80;;;;;;5029274;28;20028;-74
2022/03/02 10:19:02;;;;;;;23.60;9.75;;;6.00;90.20;;;;;;5022637;28;20033;-72
2022/03/02 10:21:30;;;;;;;25.20;10.70;;;6.00;91.20;;;;;;5014779;28;20022;-69
2022/03/02 10:24:04;;;;;;;18.92;8.70;;;6.20;90.00;;;;;;5023139;28;20042;-72
2022/03/02 10:26:40;;;;;;;28.35;9.85;;;6.40;88.70;;;;;;5018985;28;20034;-73
2022/03/02 10:29:19;;;;;;;29.10;10.73;;;6.70;81.90;;;;;;5010720;28;20368;-72
2022/03/02 10:32:08;;;;;;;19.15;8.80;;;6.80;81.90;;;;;;5011965;28;20061;-74
2022/03/02 10:35:00;;;;;;;25.55;9.40;;;7.00;77.60;;;;;;5026206;28;20038;-73
2022/03/02 10:37:33;;;;;;;23.73;9.73;;;7.30;75.30;;;;;;5027605;28;20084;-70
2022/03/02 10:40:12;;;;;;;24.05;9.63;;;7.40;73.10;;;;;;5019732;28;20041;-73
2022/03/02 10:42:57;;;;;;;20.42;9.85;;;7.50;74.90;;;;;;5015645;28;20050;-76
2022/03/02 10:45:29;;;;;;;22.02;10.45;;;8.10;76.60;;;;;;5042796;28;20048;-75
2022/03/02 10:48:21;;;;;;;19.55;9.48;;;8.20;66.70;;;;;;5010471;28;20096;-78
2022/03/02 10:50:49;;;;;;;23.40;11.10;;;8.10;67.20;;;;;;5023314;28;20057;-75
2022/03/02 10:53:18;;;;;;;25.77;11.95;;;8.20;70.20;;;;;;5028664;28;20242;-73
2022/03/02 10:55:46;;;;;;;20.98;9.60;;;8.60;68.60;;;;;;5056798;28;20030;-73
2022/03/02 10:58:14;;;;;;;19.17;10.15;;;9.00;65.20;;;;;;5023181;28;20064;-71
2022/03/02 11:00:40;;;;;;;21.80;10.32;;;9.30;62.20;;;;;;5022994;28;20040;-70
2022/03/02 11:03:07;;;;;;;21.52;9.60;;;9.50;60.10;;;;;;5014294;28;20040;-75
2022/03/02 11:05:35;;;;;;;19.80;9.75;;;9.60;61.50;;;;;;5049100;28;20111;-72
2022/03/02 11:08:01;;;;;;;21.30;9.90;;;9.20;57.40;;;;;;5024161;28;20103;-73
2022/03/02 11:10:35;;;;;;;22.67;9.85;;;9.10;59.00;;;;;;5028621;28;20445;-68
2022/03/02 11:13:13;;;;;;;22.52;9.73;;;8.80;58.50;;;;;;5039035;28;20043;-76
2022/03/02 11:15:56;;;;;;;25.63;10.13;;;8.70;59.20;;;;;;5027525;28;20033;-73
2022/03/02 11:18:40;;;;;;;21.98;9.88;;;8.40;59.30;;;;;;5032664;28;20397;-75
2022/03/02 11:21:11;;;;;;;27.27;10.10;;;8.40;61.00;;;;;;5026737;28;20029;-76
2022/03/02 11:23:40;;;;;;;23.20;10.07;;;8.60;63.20;;;;;;5033399;28;20069;-74
2022/03/02 11:26:11;;;;;;;23.40;9.75;;;8.80;66.80;;;;;;5020439;28;20033;-74
2022/03/02 11:28:37;;;;;;;23.48;10.10;;;8.70;59.50;;;;;;5009975;28;20381;-75
2022/03/02 11:31:06;;;;;;;26.50;10.07;;;8.60;60.50;;;;;;5023104;28;20116;-75
2022/03/02 11:33:32;;;;;;;23.60;9.77;;;8.50;60.00;;;;;;5022604;28;20488;-69
2022/03/02 11:36:08;;;;;;;23.80;9.82;;;8.40;59.90;;;;;;5010742;28;20065;-73
2022/03/02 11:38:34;;;;;;;20.33;9.85;;;8.30;59.20;;;;;;5008464;28;20037;-73
2022/03/02 11:41:01;;;;;;;20.27;9.48;;;8.20;58.90;;;;;;5023509;28;20099;-76
2022/03/02 11:43:29;;;;;;;20.05;9.50;;;8.20;59.90;;;;;;5027399;28;20035;-75
2022/03/02 11:46:03;;;;;;;24.90;10.95;;;8.30;62.20;;;;;;5024265;28;20029;-74
2022/03/02 11:48:34;;;;;;;23.33;10.45;;;8.30;59.80;;;;;;5022852;28;20044;-70
2022/03/02 11:51:02;;;;;;;24.80;9.93;;;8.20;60.50;;;;;;5030218;28;20107;-75
2022/03/02 11:53:37;;;;;;;21.48;9.45;;;8.20;59.40;;;;;;5028176;28;20029;-75
2022/03/02 11:56:05;;;;;;;24.15;10.23;;;8.20;59.80;;;;;;5030425;28;20666;-74
2022/03/02 11:58:53;;;;;;;23.27;10.43;;;8.30;60.30;;;;;;5027668;28;20116;-68
2022/03/02 12:01:19;;;;;;;23.50;10.50;;;8.00;58.10;;;;;;5039943;28;20028;-77
2022/03/02 12:03:58;;;;;;;21.08;9.27;;;8.10;58.50;;;;;;5038578;28;20030;-73
2022/03/02 12:06:26;;;;;;;19.23;9.15;;;8.20;58.50;;;;;;5009275;28;20539;-75
2022/03/02 12:08:53;;;;;;;23.67;10.30;;;8.10;56.90;;;;;;5007360;28;20022;-79
2022/03/02 12:11:34;;;;;;;22.63;10.07;;;7.90;57.00;;;;;;5009110;28;20399;-75
2022/03/02 12:14:12;;;;;;;25.73;10.70;;;7.70;58.30;;;;;;5017438;28;20033;-77
2022/03/02 12:16:51;;;;;;;23.27;10.32;;;7.70;61.00;;;;;;5023808;28;20108;-74
2022/03/02 12:19:23;;;;;;;21.20;9.73;;;7.70;63.60;;;;;;5027682;28;20433;-73
2022/03/02 12:21:53;;;;;;;24.00;9.93;;;7.50;64.80;;;;;;5028596;28;20049;-77
2022/03/02 12:24:25;;;;;;;21.55;9.70;;;7.50;65.20;;;;;;5018601;28;20041;-74
2022/03/02 12:26:51;;;;;;;21.48;10.88;;;7.40;66.20;;;;;;5029667;28;20030;-74
2022/03/02 12:29:17;;;;;;;21.50;9.85;;;7.50;67.80;;;;;;5021698;28;20022;-70
2022/03/02 12:31:46;;;;;;;21.00;9.85;;;7.50;68.10;;;;;;5028505;28;20036;-71
2022/03/02 12:34:16;;;;;;;25.23;10.20;;;7.40;68.70;;;;;;5014899;28;20143;-71
2022/03/02 12:36:43;;;;;;;25.77;11.15;;;7.30;70.10;;;;;;5020765;28;20061;-71